Archival Weather

Chicago O'Hare International

Chicago, Illinois (KORD)

Report from: Saturday, March 5, 2022 5:51 AM CST
Current time: Saturday, February 4, 2023 11:04 PM CST

Current weather
Weather history
Weather forecast

Temperature3.9°C (39.0°F)
Wind chill0.8°C (33.4°F)
Dew point-3.3°C (26.1°F)
Winds 7 kts (3.6 m/s, 8.1 mph) South-Southeast (150°)
Visibility10 mi. (16.1 km)
Clouds Few clouds 16,000 ft. (4,877 m)
Altimeter29.97 in.Hg (1015 mB)
Relative humidity59 %
Density altitude-1,325 ft. (-404 m)
Sea-level pressure101.6 kPa (1016 mB, 29.99 in.Hg)
Max temp last 6 hours5.6°C (42.1°F)
Min temp last 6 hours3.9°C (39.0°F)
Remarks Automated weather observing station with precipitation discriminator
Pressure falling more slowly
Flight conditions Visual Meteorological Conditions
Raw dataKORD 051151Z 15007KT 10SM FEW160 04/M03 A2997 RMK AO2 SLP155 T00391033 10056 20039 56023
An unhandled exception has occurred. See browser dev tools for details. Reload 🗙